sensor_id;sensor_type;location;lat;lon;timestamp;pressure;altitude;pressure_sealevel;temperature;humidity
78839;BME280;68405;47.190;27.558;2023-05-07T07:35:40;100171.52;;;30.47;16.45
78839;BME280;68405;47.190;27.558;2023-05-07T07:38:09;100165.17;;;29.87;15.77
78839;BME280;68405;47.190;27.558;2023-05-07T07:40:38;100168.93;;;29.73;15.69
78839;BME280;68405;47.190;27.558;2023-05-07T07:43:07;100170.40;;;28.94;15.86
78839;BME280;68405;47.190;27.558;2023-05-07T07:45:37;100164.86;;;28.45;16.62
78839;BME280;68405;47.190;27.558;2023-05-07T07:48:06;100160.23;;;28.43;17.04
78839;BME280;68405;47.190;27.558;2023-05-07T07:50:35;100165.29;;;29.43;16.43
78839;BME280;68405;47.190;27.558;2023-05-07T07:53:03;100157.27;;;30.21;15.60
78839;BME280;68405;47.190;27.558;2023-05-07T07:55:32;100163.42;;;28.97;15.94
78839;BME280;68405;47.190;27.558;2023-05-07T07:58:01;100154.55;;;27.40;17.16
78839;BME280;68405;47.190;27.558;2023-05-07T08:00:29;100159.98;;;26.18;17.99
78839;BME280;68405;47.190;27.558;2023-05-07T08:02:58;100160.93;;;24.99;19.02
78839;BME280;68405;47.190;27.558;2023-05-07T08:05:29;100154.05;;;24.28;19.96
78839;BME280;68405;47.190;27.558;2023-05-07T08:07:58;100150.02;;;23.88;20.21
78839;BME280;68405;47.190;27.558;2023-05-07T08:10:28;100154.59;;;23.49;20.79
78839;BME280;68405;47.190;27.558;2023-05-07T08:12:56;100151.76;;;24.29;20.42
78839;BME280;68405;47.190;27.558;2023-05-07T08:15:25;100152.83;;;25.45;19.60
78839;BME280;68405;47.190;27.558;2023-05-07T08:17:54;100151.13;;;24.87;19.80
78839;BME280;68405;47.190;27.558;2023-05-07T08:20:25;100147.90;;;23.75;21.12
78839;BME280;68405;47.190;27.558;2023-05-07T08:22:54;100146.30;;;22.99;21.83
78839;BME280;68405;47.190;27.558;2023-05-07T08:25:23;100141.52;;;22.99;22.07
78839;BME280;68405;47.190;27.558;2023-05-07T08:27:52;100143.70;;;23.16;21.53
78839;BME280;68405;47.190;27.558;2023-05-07T08:30:22;100144.41;;;23.20;21.17
78839;BME280;68405;47.190;27.558;2023-05-07T08:32:51;100136.45;;;22.92;21.58
78839;BME280;68405;47.190;27.558;2023-05-07T08:35:22;100138.69;;;22.86;21.69
78839;BME280;68405;47.190;27.558;2023-05-07T08:37:51;100142.19;;;22.44;22.06
78839;BME280;68405;47.190;27.558;2023-05-07T08:40:21;100144.73;;;21.91;22.76
78839;BME280;68405;47.190;27.558;2023-05-07T08:42:54;100144.26;;;21.58;23.05
78839;BME280;68405;47.190;27.558;2023-05-07T08:45:25;100137.92;;;21.30;23.25
78839;BME280;68405;47.190;27.558;2023-05-07T08:48:00;100131.39;;;21.13;23.37
78839;BME280;68405;47.190;27.558;2023-05-07T08:50:30;100129.45;;;20.81;24.01
78839;BME280;68405;47.190;27.558;2023-05-07T08:53:00;100130.25;;;20.21;24.86
78839;BME280;68405;47.190;27.558;2023-05-07T08:55:29;100125.16;;;19.87;25.12
78839;BME280;68405;47.190;27.558;2023-05-07T08:57:58;100116.09;;;19.65;25.81
78839;BME280;68405;47.190;27.558;2023-05-07T09:00:28;100118.21;;;19.50;26.27
78839;BME280;68405;47.190;27.558;2023-05-07T09:02:57;100118.85;;;19.17;26.43
78839;BME280;68405;47.190;27.558;2023-05-07T09:05:26;100116.52;;;18.84;26.62
78839;BME280;68405;47.190;27.558;2023-05-07T09:07:55;100118.79;;;18.54;26.91
78839;BME280;68405;47.190;27.558;2023-05-07T09:10:28;100124.75;;;18.24;28.45
78839;BME280;68405;47.190;27.558;2023-05-07T09:12:58;100130.05;;;17.80;29.21
78839;BME280;68405;47.190;27.558;2023-05-07T09:15:28;100124.83;;;17.44;29.49
78839;BME280;68405;47.190;27.558;2023-05-07T09:18:01;100128.05;;;17.33;29.28
78839;BME280;68405;47.190;27.558;2023-05-07T09:20:32;100129.75;;;17.19;30.20
78839;BME280;68405;47.190;27.558;2023-05-07T09:23:01;100133.52;;;17.00;29.97
78839;BME280;68405;47.190;27.558;2023-05-07T09:25:32;100128.21;;;16.87;29.46
78839;BME280;68405;47.190;27.558;2023-05-07T09:28:02;100134.54;;;16.71;29.72
78839;BME280;68405;47.190;27.558;2023-05-07T09:30:33;100140.60;;;16.57;29.81
78839;BME280;68405;47.190;27.558;2023-05-07T09:33:04;100142.68;;;16.45;30.04
78839;BME280;68405;47.190;27.558;2023-05-07T09:35:33;100142.83;;;16.32;31.52
78839;BME280;68405;47.190;27.558;2023-05-07T09:38:03;100141.52;;;16.21;31.47
78839;BME280;68405;47.190;27.558;2023-05-07T09:40:33;100142.54;;;16.11;33.33
78839;BME280;68405;47.190;27.558;2023-05-07T09:43:12;100139.05;;;15.98;33.17
78839;BME280;68405;47.190;27.558;2023-05-07T09:45:42;100142.42;;;15.87;32.90
78839;BME280;68405;47.190;27.558;2023-05-07T09:48:13;100137.64;;;15.84;32.89
78839;BME280;68405;47.190;27.558;2023-05-07T09:50:51;100138.98;;;16.05;31.97
78839;BME280;68405;47.190;27.558;2023-05-07T09:53:22;100140.13;;;16.24;32.49
78839;BME280;68405;47.190;27.558;2023-05-07T09:55:52;100141.56;;;16.33;32.73
78839;BME280;68405;47.190;27.558;2023-05-07T09:58:22;100142.86;;;16.48;32.44
78839;BME280;68405;47.190;27.558;2023-05-07T10:00:53;100136.30;;;16.62;32.82
78839;BME280;68405;47.190;27.558;2023-05-07T10:03:25;100128.96;;;16.87;32.12
78839;BME280;68405;47.190;27.558;2023-05-07T10:05:59;100129.96;;;17.07;32.13
78839;BME280;68405;47.190;27.558;2023-05-07T10:08:28;100128.68;;;17.32;31.60
78839;BME280;68405;47.190;27.558;2023-05-07T10:10:59;100128.14;;;17.44;31.31
78839;BME280;68405;47.190;27.558;2023-05-07T10:13:29;100129.77;;;17.58;31.28
78839;BME280;68405;47.190;27.558;2023-05-07T10:15:59;100130.25;;;17.53;31.22
78839;BME280;68405;47.190;27.558;2023-05-07T10:18:29;100123.27;;;17.31;32.01
78839;BME280;68405;47.190;27.558;2023-05-07T10:21:04;100121.65;;;17.23;32.15
78839;BME280;68405;47.190;27.558;2023-05-07T10:23:36;100121.05;;;17.21;31.61
78839;BME280;68405;47.190;27.558;2023-05-07T10:26:08;100112.90;;;17.28;32.06
78839;BME280;68405;47.190;27.558;2023-05-07T10:28:39;100114.99;;;17.38;31.86
78839;BME280;68405;47.190;27.558;2023-05-07T10:31:29;100107.11;;;17.40;32.27
78839;BME280;68405;47.190;27.558;2023-05-07T10:34:08;100111.20;;;17.42;31.91
78839;BME280;68405;47.190;27.558;2023-05-07T10:36:39;100116.68;;;17.45;32.16
78839;BME280;68405;47.190;27.558;2023-05-07T10:39:09;100119.67;;;17.44;31.98
78839;BME280;68405;47.190;27.558;2023-05-07T10:41:38;100113.59;;;17.43;32.37
78839;BME280;68405;47.190;27.558;2023-05-07T10:44:07;100115.70;;;17.61;32.20
78839;BME280;68405;47.190;27.558;2023-05-07T10:46:37;100119.90;;;17.82;31.57
78839;BME280;68405;47.190;27.558;2023-05-07T10:49:10;100119.84;;;17.98;31.34
78839;BME280;68405;47.190;27.558;2023-05-07T10:51:40;100110.65;;;18.22;31.44
78839;BME280;68405;47.190;27.558;2023-05-07T10:54:22;100113.15;;;18.57;31.09
78839;BME280;68405;47.190;27.558;2023-05-07T10:56:55;100111.94;;;18.74;30.58
78839;BME280;68405;47.190;27.558;2023-05-07T10:59:37;100113.17;;;18.68;30.92
78839;BME280;68405;47.190;27.558;2023-05-07T11:02:10;100111.30;;;18.70;31.10
78839;BME280;68405;47.190;27.558;2023-05-07T11:04:42;100109.74;;;18.72;30.94
78839;BME280;68405;47.190;27.558;2023-05-07T11:07:26;100108.20;;;18.71;31.13
78839;BME280;68405;47.190;27.558;2023-05-07T11:10:03;100109.86;;;18.81;30.72
78839;BME280;68405;47.190;27.558;2023-05-07T11:12:52;100105.88;;;18.94;30.61
78839;BME280;68405;47.190;27.558;2023-05-07T11:15:44;100111.52;;;19.15;30.18
78839;BME280;68405;47.190;27.558;2023-05-07T11:18:16;100114.06;;;19.14;30.10
78839;BME280;68405;47.190;27.558;2023-05-07T11:21:02;100114.97;;;19.06;30.40
78839;BME280;68405;47.190;27.558;2023-05-07T11:23:58;100116.27;;;18.97;30.38
78839;BME280;68405;47.190;27.558;2023-05-07T11:26:29;100113.50;;;18.74;30.49
78839;BME280;68405;47.190;27.558;2023-05-07T11:28:59;100107.87;;;18.52;30.82
78839;BME280;68405;47.190;27.558;2023-05-07T11:31:29;100108.21;;;18.38;30.72
78839;BME280;68405;47.190;27.558;2023-05-07T11:33:58;100102.91;;;18.35;31.48
78839;BME280;68405;47.190;27.558;2023-05-07T11:36:30;100108.27;;;18.48;31.14
78839;BME280;68405;47.190;27.558;2023-05-07T11:38:59;100104.09;;;18.48;31.37
78839;BME280;68405;47.190;27.558;2023-05-07T11:41:36;100108.48;;;18.48;31.26
78839;BME280;68405;47.190;27.558;2023-05-07T11:44:05;100109.73;;;18.45;31.49
78839;BME280;68405;47.190;27.558;2023-05-07T11:46:34;100110.70;;;18.46;31.58
78839;BME280;68405;47.190;27.558;2023-05-07T11:49:04;100113.30;;;18.44;31.51
78839;BME280;68405;47.190;27.558;2023-05-07T11:51:33;100115.20;;;18.41;31.43
78839;BME280;68405;47.190;27.558;2023-05-07T11:54:04;100113.20;;;18.37;31.58
78839;BME280;68405;47.190;27.558;2023-05-07T11:56:36;100114.78;;;18.45;31.70
78839;BME280;68405;47.190;27.558;2023-05-07T11:59:06;100116.63;;;18.52;32.04
78839;BME280;68405;47.190;27.558;2023-05-07T12:01:36;100114.50;;;18.66;31.76
78839;BME280;68405;47.190;27.558;2023-05-07T12:04:05;100117.71;;;18.63;31.89
78839;BME280;68405;47.190;27.558;2023-05-07T12:06:38;100118.17;;;18.53;32.19
78839;BME280;68405;47.190;27.558;2023-05-07T12:09:07;100115.54;;;18.47;32.41
78839;BME280;68405;47.190;27.558;2023-05-07T12:11:39;100118.17;;;18.36;32.26
78839;BME280;68405;47.190;27.558;2023-05-07T12:14:08;100115.67;;;18.23;32.49
78839;BME280;68405;47.190;27.558;2023-05-07T12:16:37;100119.96;;;17.99;32.75
78839;BME280;68405;47.190;27.558;2023-05-07T12:19:08;100119.98;;;17.78;33.38
78839;BME280;68405;47.190;27.558;2023-05-07T12:21:41;100118.39;;;17.66;33.30
78839;BME280;68405;47.190;27.558;2023-05-07T12:24:10;100112.93;;;17.57;33.78
78839;BME280;68405;47.190;27.558;2023-05-07T12:26:39;100113.65;;;17.69;33.18
78839;BME280;68405;47.190;27.558;2023-05-07T12:29:09;100121.52;;;17.81;33.49
78839;BME280;68405;47.190;27.558;2023-05-07T12:31:41;100121.61;;;17.86;34.04
78839;BME280;68405;47.190;27.558;2023-05-07T12:34:12;100121.83;;;17.94;35.52
78839;BME280;68405;47.190;27.558;2023-05-07T12:36:41;100120.55;;;17.92;36.22
78839;BME280;68405;47.190;27.558;2023-05-07T12:39:10;100123.20;;;17.97;36.96
78839;BME280;68405;47.190;27.558;2023-05-07T12:41:54;100118.11;;;18.06;37.41
78839;BME280;68405;47.190;27.558;2023-05-07T12:44:24;100112.42;;;18.13;38.25
78839;BME280;68405;47.190;27.558;2023-05-07T12:46:53;100110.84;;;18.05;37.72
78839;BME280;68405;47.190;27.558;2023-05-07T12:49:23;100104.60;;;17.88;38.90
78839;BME280;68405;47.190;27.558;2023-05-07T12:51:54;100105.92;;;17.86;38.04
78839;BME280;68405;47.190;27.558;2023-05-07T12:54:31;100103.51;;;17.74;38.66
78839;BME280;68405;47.190;27.558;2023-05-07T12:57:04;100098.89;;;17.69;40.00
78839;BME280;68405;47.190;27.558;2023-05-07T12:59:34;100099.61;;;17.68;39.74
78839;BME280;68405;47.190;27.558;2023-05-07T13:02:05;100103.02;;;17.62;40.37
78839;BME280;68405;47.190;27.558;2023-05-07T13:04:34;100102.16;;;17.47;41.07
78839;BME280;68405;47.190;27.558;2023-05-07T13:07:04;100104.48;;;17.22;41.50
78839;BME280;68405;47.190;27.558;2023-05-07T13:09:33;100104.45;;;16.92;41.27
78839;BME280;68405;47.190;27.558;2023-05-07T13:12:02;100106.49;;;16.49;42.47
78839;BME280;68405;47.190;27.558;2023-05-07T13:14:31;100104.30;;;16.22;42.76
78839;BME280;68405;47.190;27.558;2023-05-07T13:17:00;100099.48;;;15.97;45.53
78839;BME280;68405;47.190;27.558;2023-05-07T13:19:29;100095.88;;;16.03;44.24
78839;BME280;68405;47.190;27.558;2023-05-07T13:21:58;100094.59;;;16.13;44.62
78839;BME280;68405;47.190;27.558;2023-05-07T13:24:27;100095.03;;;16.22;44.98
78839;BME280;68405;47.190;27.558;2023-05-07T13:26:56;100095.90;;;16.22;46.18
78839;BME280;68405;47.190;27.558;2023-05-07T13:29:25;100094.05;;;16.23;45.83
78839;BME280;68405;47.190;27.558;2023-05-07T13:31:58;100088.73;;;16.21;45.34
78839;BME280;68405;47.190;27.558;2023-05-07T13:34:27;100092.39;;;16.31;44.34
78839;BME280;68405;47.190;27.558;2023-05-07T13:36:56;100088.14;;;16.29;43.49
78839;BME280;68405;47.190;27.558;2023-05-07T13:39:26;100083.38;;;16.23;43.76
78839;BME280;68405;47.190;27.558;2023-05-07T13:41:55;100083.31;;;16.11;43.44
78839;BME280;68405;47.190;27.558;2023-05-07T13:44:24;100083.05;;;15.96;44.47
78839;BME280;68405;47.190;27.558;2023-05-07T13:46:53;100078.53;;;15.86;44.56
78839;BME280;68405;47.190;27.558;2023-05-07T13:49:22;100081.31;;;15.69;45.25
78839;BME280;68405;47.190;27.558;2023-05-07T13:51:50;100079.48;;;15.54;45.47
78839;BME280;68405;47.190;27.558;2023-05-07T13:54:19;100078.48;;;15.39;44.75
78839;BME280;68405;47.190;27.558;2023-05-07T13:56:49;100084.89;;;15.20;45.30
78839;BME280;68405;47.190;27.558;2023-05-07T13:59:18;100084.48;;;15.07;44.50
78839;BME280;68405;47.190;27.558;2023-05-07T14:01:47;100088.69;;;14.99;44.54
78839;BME280;68405;47.190;27.558;2023-05-07T14:04:15;100092.09;;;14.94;44.85
78839;BME280;68405;47.190;27.558;2023-05-07T14:06:45;100093.09;;;14.85;45.57
78839;BME280;68405;47.190;27.558;2023-05-07T14:09:14;100097.64;;;14.77;44.73
78839;BME280;68405;47.190;27.558;2023-05-07T14:11:43;100097.61;;;14.74;45.40
78839;BME280;68405;47.190;27.558;2023-05-07T14:14:12;100095.74;;;14.70;44.53
78839;BME280;68405;47.190;27.558;2023-05-07T14:16:42;100094.26;;;14.64;44.19
78839;BME280;68405;47.190;27.558;2023-05-07T14:19:11;100095.52;;;14.59;46.08
78839;BME280;68405;47.190;27.558;2023-05-07T14:21:40;100097.77;;;14.56;45.49
78839;BME280;68405;47.190;27.558;2023-05-07T14:24:09;100107.40;;;14.52;45.54
78839;BME280;68405;47.190;27.558;2023-05-07T14:26:38;100111.80;;;14.47;46.01
78839;BME280;68405;47.190;27.558;2023-05-07T14:29:07;100118.61;;;14.43;45.92
78839;BME280;68405;47.190;27.558;2023-05-07T14:31:36;100125.22;;;14.41;46.49
78839;BME280;68405;47.190;27.558;2023-05-07T14:34:05;100129.19;;;14.38;46.94
78839;BME280;68405;47.190;27.558;2023-05-07T14:36:34;100135.56;;;14.36;47.76
78839;BME280;68405;47.190;27.558;2023-05-07T14:39:03;100134.88;;;14.32;48.84
78839;BME280;68405;47.190;27.558;2023-05-07T14:41:32;100137.78;;;14.22;48.29
78839;BME280;68405;47.190;27.558;2023-05-07T14:44:01;100141.30;;;14.13;48.36
78839;BME280;68405;47.190;27.558;2023-05-07T14:46:32;100143.92;;;14.06;49.86
78839;BME280;68405;47.190;27.558;2023-05-07T14:49:01;100142.41;;;14.00;50.60
78839;BME280;68405;47.190;27.558;2023-05-07T14:51:31;100145.31;;;13.94;50.41
78839;BME280;68405;47.190;27.558;2023-05-07T14:54:00;100145.33;;;13.85;51.74
78839;BME280;68405;47.190;27.558;2023-05-07T14:56:29;100148.30;;;13.78;51.08
78839;BME280;68405;47.190;27.558;2023-05-07T14:58:59;100143.20;;;13.66;51.40
78839;BME280;68405;47.190;27.558;2023-05-07T15:01:28;100144.14;;;13.56;51.89
78839;BME280;68405;47.190;27.558;2023-05-07T15:03:57;100146.29;;;13.43;52.22
78839;BME280;68405;47.190;27.558;2023-05-07T15:06:26;100146.39;;;13.31;52.00
78839;BME280;68405;47.190;27.558;2023-05-07T15:08:55;100148.20;;;13.16;52.91
78839;BME280;68405;47.190;27.558;2023-05-07T15:11:24;100150.05;;;13.10;53.49
78839;BME280;68405;47.190;27.558;2023-05-07T15:13:53;100149.81;;;12.98;53.73
78839;BME280;68405;47.190;27.558;2023-05-07T15:16:22;100150.08;;;12.87;53.65
78839;BME280;68405;47.190;27.558;2023-05-07T15:18:51;100156.23;;;12.77;54.86
78839;BME280;68405;47.190;27.558;2023-05-07T15:21:21;100158.44;;;12.69;55.55
78839;BME280;68405;47.190;27.558;2023-05-07T15:23:50;100161.75;;;12.60;53.56
78839;BME280;68405;47.190;27.558;2023-05-07T15:26:19;100165.53;;;12.52;55.33
78839;BME280;68405;47.190;27.558;2023-05-07T15:28:48;100161.11;;;12.45;56.68
78839;BME280;68405;47.190;27.558;2023-05-07T15:31:17;100165.55;;;12.42;57.73
78839;BME280;68405;47.190;27.558;2023-05-07T15:33:46;100157.64;;;12.40;58.50
78839;BME280;68405;47.190;27.558;2023-05-07T15:36:15;100157.26;;;12.36;59.37
78839;BME280;68405;47.190;27.558;2023-05-07T15:38:44;100161.38;;;12.23;58.46
78839;BME280;68405;47.190;27.558;2023-05-07T15:41:13;100165.47;;;12.07;61.09
78839;BME280;68405;47.190;27.558;2023-05-07T15:43:47;100168.05;;;11.92;59.00
78839;BME280;68405;47.190;27.558;2023-05-07T15:46:19;100167.73;;;11.81;60.92
78839;BME280;68405;47.190;27.558;2023-05-07T15:48:48;100169.95;;;11.67;62.14
78839;BME280;68405;47.190;27.558;2023-05-07T15:51:18;100172.66;;;11.59;62.00
78839;BME280;68405;47.190;27.558;2023-05-07T15:53:47;100178.23;;;11.54;62.29
78839;BME280;68405;47.190;27.558;2023-05-07T15:56:17;100174.83;;;11.51;61.52
78839;BME280;68405;47.190;27.558;2023-05-07T15:58:46;100174.20;;;11.49;62.72
78839;BME280;68405;47.190;27.558;2023-05-07T16:01:16;100173.83;;;11.45;64.93
78839;BME280;68405;47.190;27.558;2023-05-07T16:03:45;100171.54;;;11.41;61.45
78839;BME280;68405;47.190;27.558;2023-05-07T16:06:14;100171.98;;;11.38;62.08
78839;BME280;68405;47.190;27.558;2023-05-07T16:08:43;100164.41;;;11.30;62.77
78839;BME280;68405;47.190;27.558;2023-05-07T16:11:12;100161.98;;;11.25;64.48
78839;BME280;68405;47.190;27.558;2023-05-07T16:13:41;100160.08;;;11.19;64.70
78839;BME280;68405;47.190;27.558;2023-05-07T16:16:10;100154.50;;;11.14;63.74
78839;BME280;68405;47.190;27.558;2023-05-07T16:18:40;100154.08;;;11.05;64.20
78839;BME280;68405;47.190;27.558;2023-05-07T16:21:09;100160.17;;;10.99;63.87
78839;BME280;68405;47.190;27.558;2023-05-07T16:23:37;100165.89;;;10.94;64.72
78839;BME280;68405;47.190;27.558;2023-05-07T16:26:06;100172.55;;;10.87;64.21
78839;BME280;68405;47.190;27.558;2023-05-07T16:28:35;100174.48;;;10.80;63.47
78839;BME280;68405;47.190;27.558;2023-05-07T16:31:07;100177.20;;;10.77;64.62
78839;BME280;68405;47.190;27.558;2023-05-07T16:33:36;100170.08;;;10.72;65.58
78839;BME280;68405;47.190;27.558;2023-05-07T16:36:06;100173.13;;;10.68;64.01
78839;BME280;68405;47.190;27.558;2023-05-07T16:38:35;100174.80;;;10.64;62.96
78839;BME280;68405;47.190;27.558;2023-05-07T16:41:05;100180.48;;;10.60;62.60
78839;BME280;68405;47.190;27.558;2023-05-07T16:43:34;100182.66;;;10.57;63.02
78839;BME280;68405;47.190;27.558;2023-05-07T16:46:03;100187.91;;;10.56;62.82
78839;BME280;68405;47.190;27.558;2023-05-07T16:51:00;100200.33;;;10.53;64.74
78839;BME280;68405;47.190;27.558;2023-05-07T16:53:29;100201.92;;;10.45;64.59
78839;BME280;68405;47.190;27.558;2023-05-07T16:55:58;100212.88;;;10.39;64.05
78839;BME280;68405;47.190;27.558;2023-05-07T16:58:27;100211.16;;;10.31;62.99
78839;BME280;68405;47.190;27.558;2023-05-07T17:00:57;100215.64;;;10.25;63.26
78839;BME280;68405;47.190;27.558;2023-05-07T17:03:36;100213.55;;;10.20;65.20
78839;BME280;68405;47.190;27.558;2023-05-07T17:06:07;100206.50;;;10.11;63.31
78839;BME280;68405;47.190;27.558;2023-05-07T17:08:41;100206.11;;;10.06;63.10
78839;BME280;68405;47.190;27.558;2023-05-07T17:11:10;100206.73;;;10.02;63.63
78839;BME280;68405;47.190;27.558;2023-05-07T17:13:39;100205.64;;;9.97;63.77
78839;BME280;68405;47.190;27.558;2023-05-07T17:16:08;100202.04;;;9.96;65.68
78839;BME280;68405;47.190;27.558;2023-05-07T17:18:37;100200.95;;;9.92;63.44
78839;BME280;68405;47.190;27.558;2023-05-07T17:21:05;100201.40;;;9.88;64.40
78839;BME280;68405;47.190;27.558;2023-05-07T17:23:34;100200.73;;;9.80;63.60
78839;BME280;68405;47.190;27.558;2023-05-07T17:26:04;100196.04;;;9.74;64.59
78839;BME280;68405;47.190;27.558;2023-05-07T17:28:39;100194.59;;;9.69;63.31
78839;BME280;68405;47.190;27.558;2023-05-07T17:31:08;100204.92;;;9.65;63.64
78839;BME280;68405;47.190;27.558;2023-05-07T17:33:37;100212.52;;;9.60;65.16
78839;BME280;68405;47.190;27.558;2023-05-07T17:36:06;100214.60;;;9.60;64.48
78839;BME280;68405;47.190;27.558;2023-05-07T17:38:35;100221.83;;;9.62;63.06
78839;BME280;68405;47.190;27.558;2023-05-07T17:41:04;100226.49;;;9.63;64.20
78839;BME280;68405;47.190;27.558;2023-05-07T17:43:33;100224.98;;;9.60;63.99
78839;BME280;68405;47.190;27.558;2023-05-07T17:46:02;100227.76;;;9.61;64.09
78839;BME280;68405;47.190;27.558;2023-05-07T17:48:30;100225.16;;;9.61;64.83
78839;BME280;68405;47.190;27.558;2023-05-07T17:51:02;100227.61;;;9.60;63.44
78839;BME280;68405;47.190;27.558;2023-05-07T17:53:31;100233.58;;;9.57;63.69
78839;BME280;68405;47.190;27.558;2023-05-07T17:56:00;100230.05;;;9.52;63.76
78839;BME280;68405;47.190;27.558;2023-05-07T17:58:29;100220.54;;;9.51;64.44
78839;BME280;68405;47.190;27.558;2023-05-07T18:00:58;100220.19;;;9.51;64.11
78839;BME280;68405;47.190;27.558;2023-05-07T18:03:27;100215.54;;;9.49;64.90
78839;BME280;68405;47.190;27.558;2023-05-07T18:05:56;100219.02;;;9.49;64.20
78839;BME280;68405;47.190;27.558;2023-05-07T18:08:25;100231.88;;;9.48;64.44
78839;BME280;68405;47.190;27.558;2023-05-07T18:10:54;100242.30;;;9.47;66.60
78839;BME280;68405;47.190;27.558;2023-05-07T18:13:23;100245.95;;;9.46;65.04
78839;BME280;68405;47.190;27.558;2023-05-07T18:15:51;100246.26;;;9.42;64.48
78839;BME280;68405;47.190;27.558;2023-05-07T18:18:21;100247.86;;;9.40;65.27
78839;BME280;68405;47.190;27.558;2023-05-07T18:20:50;100248.95;;;9.37;65.95
78839;BME280;68405;47.190;27.558;2023-05-07T18:23:19;100248.89;;;9.32;65.54
78839;BME280;68405;47.190;27.558;2023-05-07T18:25:48;100248.20;;;9.32;65.59
78839;BME280;68405;47.190;27.558;2023-05-07T18:28:17;100250.45;;;9.32;65.12
78839;BME280;68405;47.190;27.558;2023-05-07T18:30:46;100252.16;;;9.33;64.96
78839;BME280;68405;47.190;27.558;2023-05-07T18:33:15;100253.77;;;9.32;65.55
78839;BME280;68405;47.190;27.558;2023-05-07T18:35:43;100254.84;;;9.30;65.27
78839;BME280;68405;47.190;27.558;2023-05-07T18:38:12;100256.25;;;9.29;65.49
78839;BME280;68405;47.190;27.558;2023-05-07T18:40:41;100256.98;;;9.28;65.77
78839;BME280;68405;47.190;27.558;2023-05-07T18:43:11;100263.38;;;9.28;65.49
78839;BME280;68405;47.190;27.558;2023-05-07T18:45:40;100266.12;;;9.29;65.73
78839;BME280;68405;47.190;27.558;2023-05-07T18:48:09;100268.90;;;9.29;65.52
78839;BME280;68405;47.190;27.558;2023-05-07T18:50:41;100268.41;;;9.28;67.62
78839;BME280;68405;47.190;27.558;2023-05-07T18:53:10;100267.10;;;9.24;65.77
78839;BME280;68405;47.190;27.558;2023-05-07T18:55:39;100264.02;;;9.22;66.07
78839;BME280;68405;47.190;27.558;2023-05-07T18:58:08;100264.91;;;9.22;67.37
78839;BME280;68405;47.190;27.558;2023-05-07T19:00:37;100265.65;;;9.19;66.59
78839;BME280;68405;47.190;27.558;2023-05-07T19:03:06;100270.40;;;9.17;67.44
78839;BME280;68405;47.190;27.558;2023-05-07T19:05:35;100268.02;;;9.14;67.26
78839;BME280;68405;47.190;27.558;2023-05-07T19:08:04;100266.45;;;9.15;67.22
78839;BME280;68405;47.190;27.558;2023-05-07T19:10:33;100265.45;;;9.13;67.44
78839;BME280;68405;47.190;27.558;2023-05-07T19:13:02;100272.41;;;9.12;67.78
78839;BME280;68405;47.190;27.558;2023-05-07T19:15:31;100277.77;;;9.12;67.67
78839;BME280;68405;47.190;27.558;2023-05-07T19:18:00;100286.82;;;9.11;67.30
78839;BME280;68405;47.190;27.558;2023-05-07T19:20:30;100286.30;;;9.11;68.39
78839;BME280;68405;47.190;27.558;2023-05-07T19:22:59;100285.63;;;9.10;66.76
78839;BME280;68405;47.190;27.558;2023-05-07T19:25:28;100284.56;;;9.11;67.14
78839;BME280;68405;47.190;27.558;2023-05-07T19:27:57;100280.62;;;9.09;67.18
78839;BME280;68405;47.190;27.558;2023-05-07T19:30:26;100276.88;;;9.06;66.38
78839;BME280;68405;47.190;27.558;2023-05-07T19:32:55;100274.83;;;9.04;66.35
78839;BME280;68405;47.190;27.558;2023-05-07T19:35:26;100275.59;;;9.01;66.41
78839;BME280;68405;47.190;27.558;2023-05-07T19:37:55;100279.11;;;8.99;68.26
78839;BME280;68405;47.190;27.558;2023-05-07T19:40:24;100286.45;;;8.95;67.16
78839;BME280;68405;47.190;27.558;2023-05-07T19:42:53;100290.83;;;8.93;69.26
78839;BME280;68405;47.190;27.558;2023-05-07T19:45:23;100288.61;;;8.91;67.77
78839;BME280;68405;47.190;27.558;2023-05-07T19:47:52;100280.77;;;8.85;66.91
78839;BME280;68405;47.190;27.558;2023-05-07T19:50:21;100277.21;;;8.81;68.71
78839;BME280;68405;47.190;27.558;2023-05-07T19:52:50;100275.05;;;8.77;68.59
78839;BME280;68405;47.190;27.558;2023-05-07T19:55:19;100277.20;;;8.74;68.41
78839;BME280;68405;47.190;27.558;2023-05-07T19:57:48;100283.34;;;8.70;69.09
78839;BME280;68405;47.190;27.558;2023-05-07T20:00:17;100286.38;;;8.66;68.27
78839;BME280;68405;47.190;27.558;2023-05-07T20:02:48;100284.51;;;8.63;67.52
78839;BME280;68405;47.190;27.558;2023-05-07T20:05:18;100280.36;;;8.63;66.50
78839;BME280;68405;47.190;27.558;2023-05-07T20:07:48;100284.02;;;8.62;68.64
78839;BME280;68405;47.190;27.558;2023-05-07T20:10:17;100295.98;;;8.61;68.93
78839;BME280;68405;47.190;27.558;2023-05-07T20:12:46;100301.60;;;8.56;67.80
78839;BME280;68405;47.190;27.558;2023-05-07T20:15:15;100304.39;;;8.57;69.13
78839;BME280;68405;47.190;27.558;2023-05-07T20:17:44;100306.16;;;8.54;68.81
78839;BME280;68405;47.190;27.558;2023-05-07T20:20:13;100310.91;;;8.50;68.56
78839;BME280;68405;47.190;27.558;2023-05-07T20:22:42;100309.38;;;8.49;68.51
78839;BME280;68405;47.190;27.558;2023-05-07T20:25:11;100307.29;;;8.50;69.21
78839;BME280;68405;47.190;27.558;2023-05-07T20:27:41;100302.80;;;8.49;68.55
78839;BME280;68405;47.190;27.558;2023-05-07T20:30:12;100299.73;;;8.46;68.02
78839;BME280;68405;47.190;27.558;2023-05-07T20:32:41;100299.95;;;8.42;67.74
78839;BME280;68405;47.190;27.558;2023-05-07T20:35:11;100310.73;;;8.39;69.81